Time;durP1;ratioP1;P1;durP2;ratioP2;P2;SDS_P1;SDS_P2;PMS_P1;PMS_P2;Temp;Humidity;BMP_temperature;BMP_pressure;BME280_temperature;BME280_humidity;BME280_pressure;Samples;Min_cycle;Max_cycle;Signal;HPM_P1;HPM_P2
2022/08/03 00:02:23;;;;;;;18.60;16.40;;;;;;;16.96;84.05;98673.55;106485;1277;24287;-81
2022/08/03 00:04:50;;;;;;;17.40;15.60;;;;;;;16.99;84.00;98675.15;106240;1277;138112;-80
2022/08/03 00:07:17;;;;;;;19.00;16.90;;;;;;;17.01;84.10;98670.40;106862;1277;22786;-80
2022/08/03 00:09:44;;;;;;;19.00;16.00;;;;;;;17.02;83.93;98671.44;106452;1277;138320;-80
2022/08/03 00:12:11;;;;;;;17.60;15.80;;;;;;;17.02;83.70;98676.34;106515;1277;25297;-80
2022/08/03 00:14:38;;;;;;;19.20;16.50;;;;;;;17.02;83.82;98675.19;106805;1276;22568;-80
2022/08/03 00:17:05;;;;;;;18.40;16.50;;;;;;;17.03;83.94;98676.06;106730;1277;138258;-81
2022/08/03 00:19:31;;;;;;;18.20;16.30;;;;;;;17.04;83.83;98679.30;106422;1277;22704;-80
2022/08/03 00:21:58;;;;;;;17.10;15.30;;;;;;;17.05;83.61;98678.41;106624;1277;138232;-81
2022/08/03 00:24:25;;;;;;;16.40;14.80;;;;;;;17.05;83.81;98681.11;106793;1277;25251;-81
2022/08/03 00:26:54;;;;;;;17.90;16.30;;;;;;;17.07;83.68;98682.48;106460;1277;22998;-81
2022/08/03 00:29:21;;;;;;;22.70;16.40;;;;;;;17.08;83.53;98685.13;106318;1277;138299;-81
2022/08/03 00:31:48;;;;;;;18.10;16.20;;;;;;;17.08;83.52;98685.08;106657;1277;24973;-81
2022/08/03 00:34:14;;;;;;;17.20;15.40;;;;;;;17.09;83.47;98684.79;106305;1277;138471;-81
2022/08/03 00:36:44;;;;;;;18.10;15.90;;;;;;;17.08;83.40;98682.15;106550;1277;22614;-81
2022/08/03 00:39:14;;;;;;;18.40;16.70;;;;;;;17.04;83.39;98682.61;106757;1277;25363;-81
2022/08/03 00:41:43;;;;;;;17.90;16.10;;;;;;;17.03;83.38;98684.53;106837;1277;138014;-81
2022/08/03 00:44:09;;;;;;;;;;;;;;;17.01;83.41;98682.95;106373;1278;22519;-81
2022/08/03 00:46:36;;;;;;;20.80;18.50;;;;;;;16.98;83.54;98687.30;106452;1277;124863;-80
2022/08/03 00:49:03;;;;;;;21.20;18.90;;;;;;;16.95;83.81;98689.96;106415;1277;23212;-81
2022/08/03 00:51:30;;;;;;;20.70;18.50;;;;;;;16.94;84.18;98693.21;106477;1277;138724;-80
2022/08/03 00:53:57;;;;;;;21.20;18.90;;;;;;;16.93;84.31;98697.17;106912;1276;22570;-80
2022/08/03 00:56:25;;;;;;;24.40;19.10;;;;;;;16.92;84.48;98695.59;106671;1275;22591;-79
2022/08/03 00:58:55;;;;;;;20.10;18.10;;;;;;;16.91;84.49;98696.52;106422;1277;138163;-81
2022/08/03 01:01:22;;;;;;;20.90;17.60;;;;;;;16.90;84.53;98695.48;106775;1275;22563;-79
2022/08/03 01:03:49;;;;;;;21.00;18.80;;;;;;;16.88;84.42;98695.64;106574;1276;138365;-82
2022/08/03 01:06:23;;;;;;;19.50;17.50;;;;;;;16.86;84.47;98690.86;106731;1277;23330;-81
2022/08/03 01:09:16;;;;;;;19.90;17.90;;;;;;;16.84;84.35;98687.90;106874;1277;22862;-81
2022/08/03 01:12:05;;;;;;;20.30;18.10;;;;;;;16.83;84.45;98688.45;106882;1277;138055;-81
2022/08/03 01:14:56;;;;;;;20.00;17.90;;;;;;;16.83;84.80;98685.16;106774;1277;23304;-81
2022/08/03 01:17:27;;;;;;;19.90;17.90;;;;;;;16.84;84.70;98682.91;106611;1277;138554;-81
2022/08/03 01:20:09;;;;;;;20.00;18.00;;;;;;;16.82;84.55;98684.92;106750;1277;22752;-81
2022/08/03 01:22:48;;;;;;;19.30;17.30;;;;;;;16.82;84.75;98682.71;106809;1277;138267;-80
2022/08/03 01:25:18;;;;;;;18.70;16.70;;;;;;;16.82;84.63;98686.13;106429;1276;24068;-81
2022/08/03 01:28:07;;;;;;;22.70;18.90;;;;;;;16.80;84.51;98691.73;106549;1277;138302;-82
2022/08/03 01:30:36;;;;;;;19.40;17.10;;;;;;;16.79;84.46;98693.02;106803;1277;22586;-81
2022/08/03 01:33:11;;;;;;;19.80;17.80;;;;;;;16.78;84.42;98690.59;106354;1277;25245;-81
2022/08/03 01:35:45;;;;;;;18.10;16.30;;;;;;;16.75;84.28;98692.13;106414;1277;139059;-82
2022/08/03 01:38:28;;;;;;;18.00;16.20;;;;;;;16.74;84.31;98695.17;106603;1277;24266;-81
2022/08/03 01:41:14;;;;;;;18.30;16.50;;;;;;;16.70;84.21;98697.49;106375;1277;138128;-81
2022/08/03 01:43:49;;;;;;;19.70;17.80;;;;;;;16.66;84.31;98692.44;106449;1276;22584;-80
2022/08/03 01:46:19;;;;;;;19.00;17.00;;;;;;;16.64;84.35;98696.80;106604;1277;138144;-81
2022/08/03 01:48:47;;;;;;;21.50;16.30;;;;;;;16.58;83.87;98692.45;106705;1277;25321;-81
2022/08/03 01:51:18;;;;;;;19.10;17.10;;;;;;;16.49;83.64;98689.13;106818;1277;22546;-80
2022/08/03 01:53:47;;;;;;;20.20;15.00;;;;;;;16.43;83.74;98686.95;107015;1277;138657;-79
2022/08/03 01:56:15;;;;;;;17.90;15.90;;;;;;;16.30;83.41;98692.51;106448;1277;22571;-80
2022/08/03 01:58:45;;;;;;;17.50;15.30;;;;;;;16.16;83.65;98691.83;106529;1277;138479;-80
2022/08/03 02:01:14;;;;;;;17.80;16.00;;;;;;;16.00;83.80;98685.45;106756;1277;22591;-81
2022/08/03 02:03:48;;;;;;;17.10;15.30;;;;;;;15.92;84.40;98686.38;106435;1277;138467;-80
2022/08/03 02:06:17;;;;;;;18.00;16.20;;;;;;;15.89;84.76;98682.91;106775;1277;25367;-80
2022/08/03 02:08:46;;;;;;;18.20;15.30;;;;;;;15.87;85.07;98685.55;106842;1277;22599;-80
2022/08/03 02:11:14;;;;;;;18.50;15.70;;;;;;;15.88;85.43;98683.36;106688;1277;138273;-80
2022/08/03 02:13:46;;;;;;;18.00;16.20;;;;;;;15.92;85.56;98681.27;106519;1277;22611;-80
2022/08/03 02:16:14;;;;;;;18.70;16.70;;;;;;;15.93;85.38;98677.59;106660;1276;138357;-78
2022/08/03 02:18:42;;;;;;;18.50;16.60;;;;;;;15.91;84.96;98680.83;106203;1277;22554;-78
2022/08/03 02:21:13;;;;;;;17.80;15.70;;;;;;;15.87;85.11;98682.75;106179;1276;25355;-79
2022/08/03 02:23:40;;;;;;;18.10;15.60;;;;;;;15.86;85.44;98683.91;106253;1277;137998;-79
2022/08/03 02:26:14;;;;;;;18.00;16.20;;;;;;;15.89;85.47;98681.10;106539;1277;22554;-79
2022/08/03 02:28:48;;;;;;;18.40;16.50;;;;;;;15.92;85.78;98688.14;106067;1277;138079;-79
2022/08/03 02:31:23;;;;;;;18.10;16.20;;;;;;;15.96;85.49;98685.17;106245;1277;25296;-79
2022/08/03 02:33:54;;;;;;;18.40;16.60;;;;;;;15.99;85.56;98678.96;106122;1277;138902;-79
2022/08/03 02:36:26;;;;;;;19.00;16.60;;;;;;;15.99;85.37;98679.14;106118;1277;22564;-79
2022/08/03 02:38:58;;;;;;;22.30;18.00;;;;;;;15.99;85.77;98678.58;106452;1276;23378;-79
2022/08/03 02:41:36;;;;;;;19.20;17.00;;;;;;;16.02;86.07;98679.90;106186;1277;138253;-78
2022/08/03 02:44:08;;;;;;;18.10;16.20;;;;;;;16.03;85.86;98681.44;106630;1277;25245;-78
2022/08/03 02:46:38;;;;;;;18.50;16.50;;;;;;;16.04;85.70;98681.82;106596;1276;138413;-78
2022/08/03 02:49:07;;;;;;;20.80;17.70;;;;;;;16.04;85.45;98678.48;106509;1277;22579;-79
2022/08/03 02:51:36;;;;;;;18.50;16.30;;;;;;;15.99;85.29;98681.99;106520;1277;138461;-78
2022/08/03 02:54:08;;;;;;;21.50;17.00;;;;;;;15.98;85.40;98682.20;106115;1280;22662;-79
2022/08/03 02:56:36;;;;;;;17.90;16.10;;;;;;;15.97;85.39;98681.88;106120;1280;24596;-78
2022/08/03 02:59:09;;;;;;;18.10;16.20;;;;;;;15.96;85.46;98687.77;105730;1279;138477;-78
2022/08/03 03:01:37;;;;;;;22.00;15.90;;;;;;;15.94;85.25;98691.28;105630;1279;22602;-78
2022/08/03 03:04:06;;;;;;;19.30;16.70;;;;;;;15.84;84.56;98687.70;105807;1280;138231;-78
2022/08/03 03:06:34;;;;;;;19.10;16.50;;;;;;;15.76;85.15;98688.29;105796;1280;22577;-78
2022/08/03 03:09:01;;;;;;;19.10;17.10;;;;;;;15.75;85.61;98689.61;105780;1280;22728;-78
2022/08/03 03:11:29;;;;;;;17.80;16.00;;;;;;;15.75;85.73;98691.20;105633;1280;138760;-78
2022/08/03 03:13:58;;;;;;;19.70;17.70;;;;;;;15.77;85.91;98687.42;106008;1280;24434;-78
2022/08/03 03:16:30;;;;;;;19.90;17.80;;;;;;;15.78;85.88;98690.73;105774;1280;139180;-80
2022/08/03 03:18:58;;;;;;;19.80;17.70;;;;;;;15.78;86.08;98689.08;106258;1277;22657;-79
2022/08/03 03:21:29;;;;;;;19.70;17.70;;;;;;;15.79;86.02;98689.39;106203;1277;138511;-80
2022/08/03 03:23:58;;;;;;;20.20;18.00;;;;;;;15.80;86.11;98687.86;106363;1277;22675;-79
2022/08/03 03:26:25;;;;;;;20.30;18.20;;;;;;;15.79;86.09;98686.92;106218;1277;22532;-79
2022/08/03 03:28:52;;;;;;;19.10;17.20;;;;;;;15.77;86.03;98692.25;106167;1277;138166;-79
2022/08/03 03:31:19;;;;;;;19.60;17.50;;;;;;;15.73;86.39;98691.13;106132;1278;22544;-79
2022/08/03 03:33:47;;;;;;;19.50;17.40;;;;;;;15.68;86.14;98691.94;106632;1277;138562;-79
2022/08/03 03:36:14;;;;;;;24.00;16.90;;;;;;;15.62;86.18;98688.96;106255;1277;22535;-79
2022/08/03 03:38:44;;;;;;;19.90;17.40;;;;;;;15.59;86.07;98690.77;106407;1277;24246;-79
2022/08/03 03:41:11;;;;;;;20.10;17.30;;;;;;;15.55;85.98;98693.58;106405;1277;138378;-79
2022/08/03 03:43:38;;;;;;;19.60;15.80;;;;;;;15.51;86.15;98692.35;106222;1277;23377;-79
2022/08/03 03:46:06;;;;;;;16.30;14.70;;;;;;;15.38;85.42;98694.77;106420;1277;138581;-79
2022/08/03 03:48:38;;;;;;;16.90;15.20;;;;;;;15.20;85.27;98696.00;106425;1277;22540;-79
2022/08/03 03:51:09;;;;;;;18.80;16.50;;;;;;;15.07;86.10;98693.37;106202;1277;24309;-78
2022/08/03 03:53:36;;;;;;;19.30;16.70;;;;;;;15.05;86.74;98694.80;106314;1278;138149;-79
2022/08/03 03:56:03;;;;;;;19.30;16.60;;;;;;;15.10;87.41;98694.93;106233;1280;23358;-79
2022/08/03 03:58:31;;;;;;;20.10;18.00;;;;;;;15.18;87.58;98699.34;105828;1277;138231;-78
2022/08/03 04:00:59;;;;;;;21.70;18.10;;;;;;;15.28;87.71;98700.69;105992;1277;25246;-78
2022/08/03 04:03:26;;;;;;;19.40;17.30;;;;;;;15.35;87.96;98697.48;105885;1277;138401;-79
2022/08/03 04:11:38;;;;;;;21.20;18.90;;;;;;;15.50;88.34;98705.80;106346;1277;138270;-79
2022/08/03 04:14:17;;;;;;;20.80;18.60;;;;;;;15.55;88.48;98707.52;106450;1277;22601;-79
2022/08/03 04:16:48;;;;;;;22.90;18.70;;;;;;;15.64;88.61;98707.74;106366;1278;141797;-79
2022/08/03 04:19:22;;;;;;;21.80;19.50;;;;;;;15.74;88.75;98710.14;106194;1278;30560;-79
2022/08/03 04:21:51;;;;;;;20.20;18.10;;;;;;;15.81;88.42;98713.34;106638;1277;138273;-79
2022/08/03 04:24:20;;;;;;;19.20;16.70;;;;;;;15.88;88.44;98711.15;106863;1277;24059;-79
2022/08/03 04:26:50;;;;;;;22.00;19.90;;;;;;;15.92;88.00;98716.26;106640;1277;22682;-79
2022/08/03 04:29:18;;;;;;;;;;;;;;;15.95;87.86;98718.58;107063;1277;138231;-79
2022/08/03 04:31:48;;;;;;;20.40;18.10;;;;;;;16.03;88.42;98720.83;106508;1277;22559;-78
2022/08/03 04:34:15;;;;;;;20.90;16.30;;;;;;;16.14;88.21;98726.77;106433;1277;138179;-79
2022/08/03 04:36:49;;;;;;;17.80;15.80;;;;;;;16.24;88.27;98730.67;106407;1278;24739;-79
2022/08/03 04:39:24;;;;;;;20.10;15.10;;;;;;;16.35;87.83;98731.00;106618;1277;22540;-79
2022/08/03 04:41:59;;;;;;;19.10;15.60;;;;;;;16.43;87.27;98732.30;107587;1280;22566;-79
2022/08/03 04:44:28;;;;;;;19.70;16.00;;;;;;;16.50;86.85;98736.14;106330;1277;22630;-79
2022/08/03 04:46:58;;;;;;;;;;;;;;;16.54;86.38;98735.70;106686;1277;138347;-79
2022/08/03 04:49:29;;;;;;;20.50;15.70;;;;;;;16.60;86.46;98739.37;105997;1277;24305;-79
2022/08/03 04:51:56;;;;;;;20.60;15.10;;;;;;;16.67;86.30;98743.88;106604;1277;138437;-79
2022/08/03 04:54:23;;;;;;;18.40;16.00;;;;;;;16.70;86.09;98747.44;107036;1277;26689;-79
2022/08/03 04:56:49;;;;;;;17.10;14.20;;;;;;;16.77;86.06;98739.55;106484;1277;22583;-79
2022/08/03 04:59:16;;;;;;;18.00;15.10;;;;;;;16.83;86.01;98743.08;106531;1274;138515;-79
2022/08/03 05:01:43;;;;;;;16.70;14.60;;;;;;;16.87;85.69;98746.60;107061;1274;22576;-80
2022/08/03 05:04:11;;;;;;;17.60;15.50;;;;;;;16.91;85.64;98741.20;107029;1274;138345;-80
2022/08/03 05:06:38;;;;;;;19.90;16.00;;;;;;;16.95;85.50;98737.23;107268;1274;22583;-79
2022/08/03 05:09:06;;;;;;;17.60;14.80;;;;;;;17.01;85.75;98740.89;107046;1274;23455;-79
2022/08/03 05:11:33;;;;;;;17.00;15.20;;;;;;;17.07;86.05;98742.24;106555;1276;138369;-79
2022/08/03 05:13:59;;;;;;;19.50;16.20;;;;;;;17.16;86.21;98744.80;106873;1276;22634;-79
2022/08/03 05:16:26;;;;;;;18.30;16.30;;;;;;;17.24;85.83;98747.19;107082;1277;138213;-80
2022/08/03 05:18:53;;;;;;;18.40;16.00;;;;;;;17.31;85.57;98746.06;107035;1274;26871;-80
2022/08/03 05:21:20;;;;;;;21.50;16.20;;;;;;;17.38;85.28;98745.30;106776;1274;22690;-80
2022/08/03 05:23:47;;;;;;;18.60;16.70;;;;;;;17.44;84.99;98740.65;107245;1274;138069;-80
2022/08/03 05:26:14;;;;;;;23.70;16.90;;;;;;;17.50;84.93;98744.15;106912;1274;22676;-80
2022/08/03 05:28:41;;;;;;;21.90;18.30;;;;;;;17.57;84.99;98743.17;107834;1274;138725;-80
2022/08/03 05:31:08;;;;;;;19.50;17.00;;;;;;;17.64;84.93;98744.89;107919;1275;22680;-80
2022/08/03 05:33:35;;;;;;;20.60;16.80;;;;;;;17.71;84.89;98741.34;106592;1277;138790;-79
2022/08/03 05:36:02;;;;;;;19.30;17.20;;;;;;;17.78;84.60;98738.91;106964;1276;25297;-80
2022/08/03 05:38:30;;;;;;;22.80;16.50;;;;;;;17.84;84.58;98743.19;106827;1274;22661;-79
2022/08/03 05:40:57;;;;;;;22.10;18.30;;;;;;;17.92;84.53;98737.48;107933;1274;138353;-80
2022/08/03 05:43:24;;;;;;;25.20;17.60;;;;;;;17.97;84.49;98738.98;106836;1274;22730;-81
2022/08/03 05:45:51;;;;;;;24.70;18.60;;;;;;;18.01;84.28;98738.40;106529;1274;138866;-78
2022/08/03 05:48:18;;;;;;;26.00;19.50;;;;;;;18.05;84.34;98743.00;106371;1274;25420;-80
2022/08/03 05:50:45;;;;;;;23.20;17.70;;;;;;;18.07;84.43;98742.98;108003;1274;22545;-78
2022/08/03 05:53:12;;;;;;;27.90;18.10;;;;;;;18.10;84.75;98742.36;107024;1274;138241;-80
2022/08/03 05:55:39;;;;;;;25.90;18.80;;;;;;;18.10;84.89;98739.82;107067;1276;22581;-79
2022/08/03 05:58:05;;;;;;;25.40;18.40;;;;;;;18.12;84.86;98741.41;106839;1274;138622;-80
2022/08/03 06:00:33;;;;;;;28.80;18.70;;;;;;;18.16;84.99;98738.39;107172;1274;22567;-79
2022/08/03 06:02:59;;;;;;;25.10;18.20;;;;;;;18.25;84.98;98740.05;107190;1274;23368;-79
2022/08/03 06:05:27;;;;;;;29.70;19.60;;;;;;;18.36;85.21;98739.83;107218;1274;138059;-78
2022/08/03 06:07:54;;;;;;;23.00;18.60;;;;;;;18.47;85.02;98742.32;107655;1274;22550;-78
2022/08/03 06:10:21;;;;;;;25.10;18.30;;;;;;;18.58;85.27;98745.09;106620;1274;315437;-78
2022/08/03 06:12:49;;;;;;;23.60;19.20;;;;;;;18.69;85.07;98743.77;107227;1277;25328;-79
2022/08/03 06:15:17;;;;;;;20.50;17.90;;;;;;;18.79;84.91;98744.81;106157;1277;24299;-79
2022/08/03 06:17:46;;;;;;;23.90;17.50;;;;;;;18.92;84.86;98743.77;106256;1277;137990;-80
2022/08/03 06:20:15;;;;;;;20.30;17.30;;;;;;;19.03;84.72;98747.08;107093;1274;24391;-79
2022/08/03 06:22:42;;;;;;;22.00;19.60;;;;;;;19.14;84.35;98744.41;107939;1274;138236;-78
2022/08/03 06:25:09;;;;;;;24.20;20.30;;;;;;;19.24;84.20;98745.84;106491;1274;22551;-81
2022/08/03 06:27:38;;;;;;;21.00;17.40;;;;;;;19.34;83.79;98748.95;106383;1274;138316;-80
2022/08/03 06:30:09;;;;;;;20.90;17.60;;;;;;;19.43;83.63;98744.02;106509;1274;22700;-79
2022/08/03 06:32:38;;;;;;;25.40;17.60;;;;;;;19.55;83.52;98746.52;106788;1277;24385;-79
2022/08/03 06:35:06;;;;;;;20.20;16.80;;;;;;;19.65;83.37;98745.23;106505;1277;138268;-77
2022/08/03 06:37:44;;;;;;;26.20;17.80;;;;;;;19.75;83.19;98746.89;106198;1277;22617;-80
2022/08/03 06:40:18;;;;;;;23.60;16.80;;;;;;;19.87;83.13;98746.72;106697;1274;138731;-78
2022/08/03 06:42:45;;;;;;;18.20;15.40;;;;;;;19.99;82.96;98747.55;106242;1274;24327;-78
2022/08/03 06:45:12;;;;;;;25.40;16.80;;;;;;;20.12;82.79;98753.14;106776;1274;23065;-78
2022/08/03 06:47:39;;;;;;;29.60;16.50;;;;;;;20.23;82.38;98753.30;107041;1274;138224;-80
2022/08/03 06:50:08;;;;;;;20.40;16.60;;;;;;;20.34;81.99;98753.15;106497;1274;22573;-79
2022/08/03 06:52:35;;;;;;;21.10;16.20;;;;;;;20.43;81.71;98757.17;106595;1277;138201;-81
2022/08/03 06:55:03;;;;;;;25.10;17.10;;;;;;;20.43;81.20;98752.35;106553;1277;24282;-81
2022/08/03 06:57:30;;;;;;;26.30;17.40;;;;;;;20.44;81.28;98752.56;106240;1277;138966;-80
2022/08/03 07:00:00;;;;;;;27.60;19.20;;;;;;;20.48;81.19;98752.09;106726;1276;22532;-82
2022/08/03 07:02:28;;;;;;;31.60;19.50;;;;;;;20.56;81.16;98749.42;106585;1274;22745;-81
2022/08/03 07:04:56;;;;;;;22.80;18.10;;;;;;;20.67;81.11;98750.25;106437;1274;138140;-83
2022/08/03 07:07:23;;;;;;;19.00;17.00;;;;;;;20.77;80.82;98754.45;106454;1275;22538;-78
2022/08/03 07:09:49;;;;;;;21.30;16.10;;;;;;;20.87;80.16;98755.70;107135;1274;138377;-83
2022/08/03 07:12:17;;;;;;;20.10;16.50;;;;;;;20.95;80.15;98756.22;106490;1276;25212;-82
2022/08/03 07:14:44;;;;;;;20.80;16.60;;;;;;;20.99;79.78;98754.90;108017;1276;22826;-81
2022/08/03 07:17:11;;;;;;;19.80;17.70;;;;;;;21.09;79.78;98756.55;107073;1274;138095;-81
2022/08/03 07:19:38;;;;;;;19.80;17.40;;;;;;;21.20;79.56;98759.04;106225;1277;25413;-81
2022/08/03 07:22:05;;;;;;;20.20;16.20;;;;;;;21.32;79.37;98756.86;106687;1274;138517;-81
2022/08/03 07:24:32;;;;;;;18.00;15.40;;;;;;;21.46;79.04;98757.75;106564;1274;23102;-82
2022/08/03 07:26:59;;;;;;;17.10;15.60;;;;;;;21.58;77.68;98758.11;106688;1274;25306;-82
2022/08/03 07:29:26;;;;;;;19.60;16.80;;;;;;;21.65;77.27;98757.20;106493;1275;138180;-82
2022/08/03 07:31:53;;;;;;;22.60;16.20;;;;;;;21.72;77.53;98759.09;106867;1274;22629;-83
2022/08/03 07:34:20;;;;;;;17.70;15.80;;;;;;;21.84;77.47;98754.84;106217;1275;138172;-82
2022/08/03 07:36:46;;;;;;;23.30;17.50;;;;;;;21.96;76.98;98751.29;106717;1277;25254;-82
2022/08/03 07:39:13;;;;;;;17.70;15.80;;;;;;;22.07;76.48;98752.69;107246;1277;22595;-82
2022/08/03 07:41:41;;;;;;;16.20;14.70;;;;;;;22.25;76.40;98751.66;107927;1274;137265;-80
2022/08/03 07:44:08;;;;;;;14.80;13.40;;;;;;;22.41;75.98;98749.84;108088;1274;24391;-81
2022/08/03 07:46:34;;;;;;;15.20;13.70;;;;;;;22.56;75.75;98750.67;107103;1274;137444;-80
2022/08/03 07:49:02;;;;;;;17.00;15.20;;;;;;;22.71;75.14;98747.83;106609;1274;22577;-83
2022/08/03 07:51:28;;;;;;;15.90;13.40;;;;;;;22.87;74.81;98752.78;106638;1277;138415;-82
2022/08/03 07:53:56;;;;;;;16.40;14.00;;;;;;;23.04;73.91;98746.38;106505;1274;22636;-80
2022/08/03 07:56:26;;;;;;;15.90;14.20;;;;;;;23.17;72.84;98745.38;106393;1277;24261;-82
2022/08/03 07:58:54;;;;;;;16.10;14.30;;;;;;;23.31;72.40;98745.27;106331;1277;138088;-81
2022/08/03 08:01:22;;;;;;;14.70;13.10;;;;;;;23.45;71.91;98744.45;106455;1274;22663;-82
2022/08/03 08:03:49;;;;;;;16.50;12.90;;;;;;;23.61;71.04;98747.98;106614;1277;138173;-81
2022/08/03 08:06:17;;;;;;;14.20;12.50;;;;;;;23.81;70.57;98741.52;106666;1277;22588;-84
2022/08/03 08:08:44;;;;;;;18.90;12.20;;;;;;;24.02;69.87;98744.09;106698;1275;22565;-81
2022/08/03 08:11:11;;;;;;;15.40;12.20;;;;;;;24.23;69.47;98745.45;106756;1274;137951;-82
2022/08/03 08:13:38;;;;;;;18.80;12.20;;;;;;;24.46;69.22;98747.98;106636;1277;22555;-84
2022/08/03 08:16:05;;;;;;;19.50;11.30;;;;;;;24.67;68.43;98744.95;106423;1277;137641;-84
2022/08/03 08:18:33;;;;;;;16.50;12.40;;;;;;;24.91;67.73;98747.00;106452;1277;22555;-84
2022/08/03 08:21:03;;;;;;;13.30;11.40;;;;;;;25.12;66.21;98746.20;106552;1277;24221;-83
2022/08/03 08:23:30;;;;;;;12.50;11.30;;;;;;;25.30;65.44;98743.95;106648;1277;137438;-84
2022/08/03 08:25:57;;;;;;;17.30;11.90;;;;;;;25.36;64.36;98747.98;106617;1277;22539;-85
2022/08/03 08:28:24;;;;;;;12.10;10.80;;;;;;;25.43;63.83;98750.67;106867;1277;137472;-83
2022/08/03 08:30:51;;;;;;;15.70;10.80;;;;;;;25.52;63.46;98749.60;106687;1277;22675;-84
2022/08/03 08:33:18;;;;;;;12.70;11.30;;;;;;;25.63;63.54;98746.35;106633;1277;22576;-84
2022/08/03 08:35:45;;;;;;;12.20;10.30;;;;;;;25.71;61.66;98748.66;108184;1277;137511;-83
2022/08/03 08:38:12;;;;;;;13.80;10.10;;;;;;;25.70;60.51;98743.77;106935;1277;22579;-83
2022/08/03 08:40:39;;;;;;;11.60;10.10;;;;;;;25.70;60.50;98747.35;106332;1276;137614;-82
2022/08/03 08:43:06;;;;;;;12.00;10.90;;;;;;;25.72;60.28;98747.83;106482;1277;22532;-81
2022/08/03 08:45:33;;;;;;;14.40;10.00;;;;;;;25.73;60.04;98752.42;106303;1277;137769;-84
2022/08/03 08:48:01;;;;;;;11.80;9.90;;;;;;;25.76;60.04;98753.98;106751;1277;22578;-83
2022/08/03 08:50:29;;;;;;;10.40;9.40;;;;;;;25.73;59.67;98753.70;106534;1277;24108;-82
2022/08/03 08:53:01;;;;;;;11.00;9.90;;;;;;;25.77;59.36;98749.77;106120;1277;137271;-81
2022/08/03 08:55:28;;;;;;;10.40;9.30;;;;;;;25.85;58.89;98748.27;106641;1277;25327;-82
2022/08/03 08:58:02;;;;;;;12.70;9.30;;;;;;;25.95;58.55;98748.09;106252;1278;137380;-82
2022/08/03 09:00:30;;;;;;;9.00;8.10;;;;;;;26.05;58.13;98749.85;106591;1277;22548;-82
2022/08/03 09:02:57;;;;;;;9.60;8.40;;;;;;;26.14;57.50;98753.28;106661;1277;23951;-82
2022/08/03 09:05:24;;;;;;;11.20;9.40;;;;;;;26.19;57.05;98748.75;106185;1277;137137;-82
2022/08/03 09:07:52;;;;;;;12.10;9.00;;;;;;;26.21;56.40;98747.26;106206;1277;22617;-84
2022/08/03 09:10:20;;;;;;;12.00;9.20;;;;;;;26.21;56.41;98745.90;106308;1277;137181;-83
2022/08/03 09:12:50;;;;;;;9.20;8.30;;;;;;;26.26;56.67;98745.43;106546;1278;22609;-82
2022/08/03 09:15:31;;;;;;;9.60;8.00;;;;;;;26.35;55.19;98743.04;106384;1277;22547;-82
2022/08/03 09:18:00;;;;;;;8.40;7.60;;;;;;;26.42;53.69;98740.34;106481;1278;22550;-82
2022/08/03 09:20:32;;;;;;;10.80;9.30;;;;;;;26.47;53.99;98740.69;106292;1276;24223;-83
2022/08/03 09:23:03;;;;;;;11.10;9.10;;;;;;;26.59;54.67;98739.20;106364;1277;137291;-81
2022/08/03 09:25:33;;;;;;;8.50;7.70;;;;;;;26.74;54.60;98740.61;106364;1277;24263;-81
2022/08/03 09:28:14;;;;;;;9.40;8.50;;;;;;;26.85;54.15;98737.75;106585;1277;137252;-82
2022/08/03 09:30:56;;;;;;;8.70;7.90;;;;;;;26.98;53.76;98737.59;106744;1276;24268;-82
2022/08/03 09:33:24;;;;;;;7.80;6.90;;;;;;;27.14;52.70;98736.05;106704;1277;22557;-82
2022/08/03 09:35:51;;;;;;;7.50;6.80;;;;;;;27.28;52.22;98733.52;106626;1277;22550;-81
2022/08/03 09:38:24;;;;;;;7.50;6.80;;;;;;;27.44;51.29;98732.36;106357;1277;23983;-81
2022/08/03 09:40:52;;;;;;;8.00;7.20;;;;;;;27.61;51.60;98735.91;107981;1277;137262;-81
2022/08/03 09:43:20;;;;;;;9.00;7.70;;;;;;;27.69;50.96;98740.30;106574;1277;24012;-81
2022/08/03 09:45:47;;;;;;;9.30;8.00;;;;;;;27.73;51.54;98734.84;106390;1277;137450;-85
2022/08/03 09:48:27;;;;;;;9.70;7.10;;;;;;;27.85;50.71;98731.70;106497;1277;22662;-82
2022/08/03 09:51:02;;;;;;;7.40;6.50;;;;;;;28.01;49.66;98733.88;106683;1277;22543;-81
2022/08/03 09:53:29;;;;;;;6.30;5.80;;;;;;;28.16;47.97;98736.86;106225;1277;137656;-83
2022/08/03 09:55:58;;;;;;;7.90;6.30;;;;;;;28.16;45.42;98733.20;106939;1277;25304;-85
2022/08/03 09:58:27;;;;;;;7.50;6.90;;;;;;;28.05;45.81;98730.71;106220;1277;137046;-84
2022/08/03 10:01:02;;;;;;;7.30;6.60;;;;;;;27.99;46.97;98726.14;106712;1277;22643;-81
2022/08/03 10:03:32;;;;;;;7.90;7.00;;;;;;;28.02;47.30;98727.83;106347;1277;137211;-81
2022/08/03 10:06:21;;;;;;;7.50;6.70;;;;;;;28.14;46.49;98726.51;106527;1277;22535;-81
2022/08/03 10:09:23;;;;;;;6.70;6.20;;;;;;;28.23;45.07;98723.88;106609;1278;25325;-82
2022/08/03 10:11:51;;;;;;;6.40;5.90;;;;;;;28.36;44.64;98720.07;105736;1284;22563;-81
2022/08/03 10:14:18;;;;;;;5.90;5.50;;;;;;;28.45;44.82;98717.91;105643;1284;24230;-81
2022/08/03 10:16:46;;;;;;;7.80;5.50;;;;;;;28.61;44.95;98717.48;105607;1284;137339;-81
2022/08/03 10:19:14;;;;;;;5.70;5.10;;;;;;;28.79;43.88;98720.69;105750;1284;22598;-83
2022/08/03 10:21:48;;;;;;;5.90;5.30;;;;;;;28.89;44.30;98717.98;105532;1284;137340;-80
2022/08/03 10:24:23;;;;;;;5.20;4.60;;;;;;;28.96;41.91;98717.28;105857;1284;22777;-82
2022/08/03 10:26:52;;;;;;;11.10;5.60;;;;;;;29.04;43.28;98715.65;105309;1284;22547;-81
2022/08/03 10:29:23;;;;;;;5.50;5.00;;;;;;;29.20;42.66;98716.70;105602;1284;137431;-81
2022/08/03 10:31:56;;;;;;;6.10;5.20;;;;;;;29.38;42.74;98718.75;105875;1284;22576;-81
2022/08/03 10:34:26;;;;;;;5.70;5.30;;;;;;;29.54;42.69;98714.95;105338;1284;137083;-81
2022/08/03 10:36:57;;;;;;;7.20;5.30;;;;;;;29.67;42.06;98715.10;106027;1284;24551;-82
2022/08/03 10:39:28;;;;;;;6.00;5.30;;;;;;;29.79;40.83;98716.98;105877;1284;25448;-81
2022/08/03 10:41:57;;;;;;;8.50;6.30;;;;;;;29.88;41.69;98710.93;106580;1283;22809;-81
2022/08/03 10:44:38;;;;;;;12.20;6.30;;;;;;;29.98;41.35;98708.64;106141;1284;24078;-80
2022/08/03 10:47:06;;;;;;;6.30;5.70;;;;;;;30.07;41.54;98705.07;106399;1277;137357;-80
2022/08/03 10:49:33;;;;;;;5.40;5.00;;;;;;;30.13;41.92;98705.91;106485;1277;24533;-81
2022/08/03 10:52:01;;;;;;;5.40;4.90;;;;;;;30.22;41.48;98706.33;106480;1277;137297;-81
2022/08/03 10:57:48;;;;;;;5.10;4.60;;;;;;;30.51;39.64;98698.09;106190;1277;137399;-80
2022/08/03 11:00:17;;;;;;;5.10;4.60;;;;;;;30.54;39.26;98695.08;106410;1277;22567;-81
2022/08/03 11:03:13;;;;;;;6.00;4.50;;;;;;;30.57;39.66;98695.46;106259;1277;25518;-81
2022/08/03 11:05:47;;;;;;;5.40;4.40;;;;;;;30.64;37.77;98694.95;106263;1277;137091;-81
2022/08/03 11:08:30;;;;;;;4.50;4.10;;;;;;;30.66;37.31;98690.73;106755;1277;25454;-81
2022/08/03 11:11:00;;;;;;;4.80;4.40;;;;;;;30.64;36.75;98687.02;106633;1277;138128;-81
2022/08/03 11:13:30;;;;;;;6.60;4.30;;;;;;;30.70;38.01;98691.85;106230;1277;25296;-80
2022/08/03 11:16:01;;;;;;;5.20;4.70;;;;;;;30.83;38.52;98690.63;106783;1277;137885;-80
2022/08/03 11:18:28;;;;;;;8.10;5.50;;;;;;;30.92;38.80;98690.23;106082;1277;22540;-81
2022/08/03 11:20:59;;;;;;;6.90;5.30;;;;;;;31.07;38.50;98689.77;106363;1277;23492;-80
2022/08/03 11:23:46;;;;;;;9.10;5.00;;;;;;;31.24;38.08;98686.03;106330;1277;137275;-80
2022/08/03 11:26:17;;;;;;;8.90;5.40;;;;;;;31.43;38.22;98686.39;106267;1277;22687;-79
2022/08/03 11:28:46;;;;;;;5.30;4.90;;;;;;;31.54;36.67;98681.67;106395;1277;137423;-78
2022/08/03 11:31:23;;;;;;;5.50;5.00;;;;;;;31.67;36.81;98681.60;106418;1277;24279;-79